sensor_id;sensor_type;location;lat;lon;timestamp;pressure;altitude;pressure_sealevel;temperature;humidity
22333;BME280;11334;36.986;-121.936;2023-05-25T00:00:37;100914.06;;;19.40;66.00
22333;BME280;11334;36.986;-121.936;2023-05-25T00:03:03;100906.63;;;19.35;66.24
22333;BME280;11334;36.986;-121.936;2023-05-25T00:05:30;100913.44;;;19.31;66.40
22333;BME280;11334;36.986;-121.936;2023-05-25T00:07:56;100900.00;;;19.31;66.50
22333;BME280;11334;36.986;-121.936;2023-05-25T00:10:22;100904.34;;;19.32;65.27
22333;BME280;11334;36.986;-121.936;2023-05-25T00:12:49;100907.03;;;19.32;65.64
22333;BME280;11334;36.986;-121.936;2023-05-25T00:15:15;100900.22;;;19.30;65.94
22333;BME280;11334;36.986;-121.936;2023-05-25T00:17:41;100886.97;;;19.29;65.95
22333;BME280;11334;36.986;-121.936;2023-05-25T00:20:08;100894.22;;;19.22;66.21
22333;BME280;11334;36.986;-121.936;2023-05-25T00:22:37;100891.75;;;19.20;65.86
22333;BME280;11334;36.986;-121.936;2023-05-25T00:25:04;100893.81;;;19.18;66.34
22333;BME280;11334;36.986;-121.936;2023-05-25T00:27:31;100886.56;;;19.19;66.35
22333;BME280;11334;36.986;-121.936;2023-05-25T00:29:58;100888.84;;;19.09;67.66
22333;BME280;11334;36.986;-121.936;2023-05-25T00:32:24;100885.13;;;19.10;67.97
22333;BME280;11334;36.986;-121.936;2023-05-25T00:34:50;100879.75;;;19.10;67.36
22333;BME280;11334;36.986;-121.936;2023-05-25T00:37:17;100872.94;;;19.14;67.58
22333;BME280;11334;36.986;-121.936;2023-05-25T00:39:43;100883.28;;;19.10;67.41
22333;BME280;11334;36.986;-121.936;2023-05-25T00:42:10;100874.59;;;19.02;67.99
22333;BME280;11334;36.986;-121.936;2023-05-25T00:44:36;100875.41;;;19.02;68.51
22333;BME280;11334;36.986;-121.936;2023-05-25T00:47:02;100875.84;;;18.99;69.33
22333;BME280;11334;36.986;-121.936;2023-05-25T00:49:30;100868.81;;;18.99;68.60
22333;BME280;11334;36.986;-121.936;2023-05-25T00:51:58;100871.69;;;18.97;69.54
22333;BME280;11334;36.986;-121.936;2023-05-25T00:54:26;100870.84;;;18.84;69.34
22333;BME280;11334;36.986;-121.936;2023-05-25T00:56:56;100877.66;;;18.86;69.32
22333;BME280;11334;36.986;-121.936;2023-05-25T00:59:52;100868.78;;;18.86;68.96
22333;BME280;11334;36.986;-121.936;2023-05-25T01:02:18;100869.00;;;18.78;69.50
22333;BME280;11334;36.986;-121.936;2023-05-25T01:04:52;100876.84;;;18.73;69.39
22333;BME280;11334;36.986;-121.936;2023-05-25T01:07:23;100872.09;;;18.68;70.27
22333;BME280;11334;36.986;-121.936;2023-05-25T01:10:04;100878.66;;;18.60;71.00
22333;BME280;11334;36.986;-121.936;2023-05-25T01:12:39;100878.25;;;18.50;71.86
22333;BME280;11334;36.986;-121.936;2023-05-25T01:15:08;100877.00;;;18.39;72.26
22333;BME280;11334;36.986;-121.936;2023-05-25T01:17:35;100877.19;;;18.38;72.53
22333;BME280;11334;36.986;-121.936;2023-05-25T01:20:04;100874.50;;;18.38;71.90
22333;BME280;11334;36.986;-121.936;2023-05-25T01:22:44;100870.38;;;18.35;72.49
22333;BME280;11334;36.986;-121.936;2023-05-25T01:25:17;100873.88;;;18.30;72.52
22333;BME280;11334;36.986;-121.936;2023-05-25T01:27:53;100862.91;;;18.25;72.13
22333;BME280;11334;36.986;-121.936;2023-05-25T01:30:24;100866.63;;;18.17;72.33
22333;BME280;11334;36.986;-121.936;2023-05-25T01:32:52;100864.97;;;18.16;73.15
22333;BME280;11334;36.986;-121.936;2023-05-25T01:35:20;100864.75;;;18.11;72.91
22333;BME280;11334;36.986;-121.936;2023-05-25T01:37:48;100864.53;;;18.13;72.74
22333;BME280;11334;36.986;-121.936;2023-05-25T01:40:16;100849.81;;;18.02;73.48
22333;BME280;11334;36.986;-121.936;2023-05-25T01:42:43;100857.50;;;18.05;74.64
22333;BME280;11334;36.986;-121.936;2023-05-25T01:45:10;100866.16;;;18.07;74.18
22333;BME280;11334;36.986;-121.936;2023-05-25T01:53:21;100864.00;;;17.90;74.06
22333;BME280;11334;36.986;-121.936;2023-05-25T01:56:04;100860.25;;;17.78;72.62
22333;BME280;11334;36.986;-121.936;2023-05-25T01:58:42;100868.47;;;17.71;73.39
22333;BME280;11334;36.986;-121.936;2023-05-25T02:01:09;100864.31;;;17.68;73.72
22333;BME280;11334;36.986;-121.936;2023-05-25T02:03:37;100866.78;;;17.63;73.90
22333;BME280;11334;36.986;-121.936;2023-05-25T02:06:05;100869.44;;;17.63;74.45
22333;BME280;11334;36.986;-121.936;2023-05-25T02:08:32;100870.03;;;17.59;74.71
22333;BME280;11334;36.986;-121.936;2023-05-25T02:10:58;100872.88;;;17.44;75.27
22333;BME280;11334;36.986;-121.936;2023-05-25T02:13:24;100867.88;;;17.41;75.40
22333;BME280;11334;36.986;-121.936;2023-05-25T02:15:51;100865.41;;;17.40;75.46
22333;BME280;11334;36.986;-121.936;2023-05-25T02:18:18;100875.69;;;17.37;75.19
22333;BME280;11334;36.986;-121.936;2023-05-25T02:20:45;100875.25;;;17.33;74.93
22333;BME280;11334;36.986;-121.936;2023-05-25T02:23:12;100870.25;;;17.24;75.04
22333;BME280;11334;36.986;-121.936;2023-05-25T02:25:38;100881.16;;;17.22;74.56
22333;BME280;11334;36.986;-121.936;2023-05-25T02:28:04;100878.03;;;17.19;75.33
22333;BME280;11334;36.986;-121.936;2023-05-25T02:30:31;100881.53;;;17.19;74.50
22333;BME280;11334;36.986;-121.936;2023-05-25T02:32:57;100882.50;;;17.12;75.20
22333;BME280;11334;36.986;-121.936;2023-05-25T02:35:23;100885.69;;;17.01;75.46
22333;BME280;11334;36.986;-121.936;2023-05-25T02:37:49;100885.53;;;17.03;74.99
22333;BME280;11334;36.986;-121.936;2023-05-25T02:40:16;100878.31;;;17.03;74.78
22333;BME280;11334;36.986;-121.936;2023-05-25T02:42:42;100881.41;;;17.07;73.36
22333;BME280;11334;36.986;-121.936;2023-05-25T02:45:09;100887.97;;;17.04;72.98
22333;BME280;11334;36.986;-121.936;2023-05-25T02:47:36;100895.53;;;16.94;73.82
22333;BME280;11334;36.986;-121.936;2023-05-25T02:50:03;100886.50;;;16.95;74.01
22333;BME280;11334;36.986;-121.936;2023-05-25T02:52:29;100887.31;;;16.96;74.51
22333;BME280;11334;36.986;-121.936;2023-05-25T02:54:56;100889.91;;;16.89;74.77
22333;BME280;11334;36.986;-121.936;2023-05-25T02:57:22;100884.56;;;16.89;74.76
22333;BME280;11334;36.986;-121.936;2023-05-25T02:59:49;100894.06;;;16.92;75.12
22333;BME280;11334;36.986;-121.936;2023-05-25T03:02:15;100888.28;;;16.88;75.68
22333;BME280;11334;36.986;-121.936;2023-05-25T03:04:46;100888.22;;;16.82;76.49
22333;BME280;11334;36.986;-121.936;2023-05-25T03:07:14;100896.22;;;16.82;76.39
22333;BME280;11334;36.986;-121.936;2023-05-25T03:09:40;100897.69;;;16.84;76.39
22333;BME280;11334;36.986;-121.936;2023-05-25T03:12:07;100899.13;;;16.80;76.57
22333;BME280;11334;36.986;-121.936;2023-05-25T03:14:33;100902.53;;;16.75;77.60
22333;BME280;11334;36.986;-121.936;2023-05-25T03:16:59;100908.53;;;16.76;78.16
22333;BME280;11334;36.986;-121.936;2023-05-25T03:19:26;100912.25;;;16.76;78.73
22333;BME280;11334;36.986;-121.936;2023-05-25T03:21:52;100909.31;;;16.71;78.35
22333;BME280;11334;36.986;-121.936;2023-05-25T03:24:18;100904.31;;;16.68;78.26
22333;BME280;11334;36.986;-121.936;2023-05-25T03:26:44;100917.34;;;16.71;78.37
22333;BME280;11334;36.986;-121.936;2023-05-25T03:29:11;100916.13;;;16.73;78.36
22333;BME280;11334;36.986;-121.936;2023-05-25T03:31:37;100914.28;;;16.74;78.25
22333;BME280;11334;36.986;-121.936;2023-05-25T03:34:03;100909.06;;;16.66;78.85
22333;BME280;11334;36.986;-121.936;2023-05-25T03:36:30;100917.34;;;16.71;79.10
22333;BME280;11334;36.986;-121.936;2023-05-25T03:38:58;100925.94;;;16.66;78.77
22333;BME280;11334;36.986;-121.936;2023-05-25T03:41:25;100922.06;;;16.69;79.02
22333;BME280;11334;36.986;-121.936;2023-05-25T03:43:52;100925.16;;;16.72;78.48
22333;BME280;11334;36.986;-121.936;2023-05-25T03:46:18;100923.44;;;16.65;79.08
22333;BME280;11334;36.986;-121.936;2023-05-25T03:48:45;100921.16;;;16.62;79.69
22333;BME280;11334;36.986;-121.936;2023-05-25T03:51:11;100926.34;;;16.63;79.56
22333;BME280;11334;36.986;-121.936;2023-05-25T03:53:37;100925.22;;;16.58;79.80
22333;BME280;11334;36.986;-121.936;2023-05-25T03:56:04;100931.44;;;16.58;79.73
22333;BME280;11334;36.986;-121.936;2023-05-25T03:58:30;100909.56;;;16.55;80.24
22333;BME280;11334;36.986;-121.936;2023-05-25T04:00:56;100937.13;;;16.55;80.65
22333;BME280;11334;36.986;-121.936;2023-05-25T04:03:23;100924.28;;;16.44;80.79
22333;BME280;11334;36.986;-121.936;2023-05-25T04:05:49;100910.19;;;16.36;80.12
22333;BME280;11334;36.986;-121.936;2023-05-25T04:08:15;100932.72;;;16.48;78.57
22333;BME280;11334;36.986;-121.936;2023-05-25T04:10:45;100932.13;;;16.46;78.27
22333;BME280;11334;36.986;-121.936;2023-05-25T04:13:11;100919.88;;;16.37;78.68
22333;BME280;11334;36.986;-121.936;2023-05-25T04:15:40;100924.00;;;16.40;78.80
22333;BME280;11334;36.986;-121.936;2023-05-25T04:18:07;100931.84;;;16.41;78.65
22333;BME280;11334;36.986;-121.936;2023-05-25T04:20:33;100926.97;;;16.30;78.76
22333;BME280;11334;36.986;-121.936;2023-05-25T04:22:59;100939.22;;;16.39;78.82
22333;BME280;11334;36.986;-121.936;2023-05-25T04:25:26;100946.06;;;16.42;78.81
22333;BME280;11334;36.986;-121.936;2023-05-25T04:27:52;100943.56;;;16.40;78.96
22333;BME280;11334;36.986;-121.936;2023-05-25T04:30:21;100949.28;;;16.37;79.06
22333;BME280;11334;36.986;-121.936;2023-05-25T04:32:47;100952.41;;;16.41;78.25
22333;BME280;11334;36.986;-121.936;2023-05-25T04:35:15;100948.47;;;16.37;78.08
22333;BME280;11334;36.986;-121.936;2023-05-25T04:37:45;100944.31;;;16.34;77.95
22333;BME280;11334;36.986;-121.936;2023-05-25T04:40:13;100943.50;;;16.34;76.95
22333;BME280;11334;36.986;-121.936;2023-05-25T04:42:40;100937.41;;;16.25;76.22
22333;BME280;11334;36.986;-121.936;2023-05-25T04:45:07;100957.16;;;16.24;76.22
22333;BME280;11334;36.986;-121.936;2023-05-25T04:47:37;100944.16;;;16.21;76.10
22333;BME280;11334;36.986;-121.936;2023-05-25T04:50:07;100943.69;;;16.18;76.17
22333;BME280;11334;36.986;-121.936;2023-05-25T04:52:34;100946.03;;;16.21;76.31
22333;BME280;11334;36.986;-121.936;2023-05-25T04:55:01;100940.03;;;16.19;76.80
22333;BME280;11334;36.986;-121.936;2023-05-25T04:57:28;100949.25;;;16.16;76.43
22333;BME280;11334;36.986;-121.936;2023-05-25T04:59:57;100949.78;;;16.12;76.79
22333;BME280;11334;36.986;-121.936;2023-05-25T05:02:24;100945.47;;;16.11;76.82
22333;BME280;11334;36.986;-121.936;2023-05-25T05:04:51;100945.47;;;16.11;75.62
22333;BME280;11334;36.986;-121.936;2023-05-25T05:07:19;100946.97;;;16.13;75.49
22333;BME280;11334;36.986;-121.936;2023-05-25T05:09:48;100944.06;;;16.15;75.57
22333;BME280;11334;36.986;-121.936;2023-05-25T05:12:15;100939.00;;;16.20;75.95
22333;BME280;11334;36.986;-121.936;2023-05-25T05:14:41;100936.56;;;16.11;76.12
22333;BME280;11334;36.986;-121.936;2023-05-25T05:17:07;100936.03;;;16.01;77.09
22333;BME280;11334;36.986;-121.936;2023-05-25T05:19:33;100906.31;;;15.89;77.53
22333;BME280;11334;36.986;-121.936;2023-05-25T05:22:00;100934.84;;;16.03;77.55
22333;BME280;11334;36.986;-121.936;2023-05-25T05:24:26;100940.00;;;16.05;77.37
22333;BME280;11334;36.986;-121.936;2023-05-25T05:26:52;100936.53;;;16.04;77.95
22333;BME280;11334;36.986;-121.936;2023-05-25T05:29:19;100935.50;;;16.05;78.41
22333;BME280;11334;36.986;-121.936;2023-05-25T05:31:45;100937.06;;;16.00;78.22
22333;BME280;11334;36.986;-121.936;2023-05-25T05:34:11;100942.59;;;15.98;78.10
22333;BME280;11334;36.986;-121.936;2023-05-25T05:36:37;100952.28;;;15.99;78.62
22333;BME280;11334;36.986;-121.936;2023-05-25T05:39:04;100949.41;;;16.01;78.61
22333;BME280;11334;36.986;-121.936;2023-05-25T05:41:30;100938.81;;;15.93;78.79
22333;BME280;11334;36.986;-121.936;2023-05-25T05:43:56;100940.66;;;15.92;79.16
22333;BME280;11334;36.986;-121.936;2023-05-25T05:46:23;100932.81;;;15.91;79.69
22333;BME280;11334;36.986;-121.936;2023-05-25T05:48:49;100940.41;;;15.87;80.13
22333;BME280;11334;36.986;-121.936;2023-05-25T05:51:15;100937.91;;;15.86;80.22
22333;BME280;11334;36.986;-121.936;2023-05-25T05:53:41;100935.88;;;15.88;80.33
22333;BME280;11334;36.986;-121.936;2023-05-25T05:56:16;100931.00;;;15.91;80.52
22333;BME280;11334;36.986;-121.936;2023-05-25T05:58:42;100933.84;;;15.90;80.73
22333;BME280;11334;36.986;-121.936;2023-05-25T06:01:08;100931.28;;;15.82;81.49
22333;BME280;11334;36.986;-121.936;2023-05-25T06:03:34;100931.94;;;15.84;81.26
22333;BME280;11334;36.986;-121.936;2023-05-25T06:06:03;100934.94;;;15.81;81.89
22333;BME280;11334;36.986;-121.936;2023-05-25T06:08:29;100931.28;;;15.82;81.77
22333;BME280;11334;36.986;-121.936;2023-05-25T06:10:55;100932.09;;;15.82;81.50
22333;BME280;11334;36.986;-121.936;2023-05-25T06:13:21;100932.88;;;15.77;81.11
22333;BME280;11334;36.986;-121.936;2023-05-25T06:15:48;100931.94;;;15.70;81.93
22333;BME280;11334;36.986;-121.936;2023-05-25T06:18:14;100927.25;;;15.72;81.73
22333;BME280;11334;36.986;-121.936;2023-05-25T06:20:40;100932.59;;;15.72;82.04
22333;BME280;11334;36.986;-121.936;2023-05-25T06:23:07;100929.44;;;15.68;82.54
22333;BME280;11334;36.986;-121.936;2023-05-25T06:25:36;100929.44;;;15.68;83.18
22333;BME280;11334;36.986;-121.936;2023-05-25T06:28:02;100921.78;;;15.65;82.92
22333;BME280;11334;36.986;-121.936;2023-05-25T06:30:28;100929.44;;;15.68;82.88
22333;BME280;11334;36.986;-121.936;2023-05-25T06:32:55;100914.72;;;15.72;82.59
22333;BME280;11334;36.986;-121.936;2023-05-25T06:35:22;100907.78;;;15.63;82.82
22333;BME280;11334;36.986;-121.936;2023-05-25T06:37:48;100921.63;;;15.67;82.73
22333;BME280;11334;36.986;-121.936;2023-05-25T06:40:15;100921.78;;;15.65;82.74
22333;BME280;11334;36.986;-121.936;2023-05-25T06:42:42;100919.78;;;15.67;82.67
22333;BME280;11334;36.986;-121.936;2023-05-25T06:45:08;100916.84;;;15.62;82.73
22333;BME280;11334;36.986;-121.936;2023-05-25T06:47:35;100909.53;;;15.56;83.63
22333;BME280;11334;36.986;-121.936;2023-05-25T06:50:02;100923.75;;;15.57;83.62
22333;BME280;11334;36.986;-121.936;2023-05-25T06:52:29;100914.34;;;15.61;82.93
22333;BME280;11334;36.986;-121.936;2023-05-25T06:54:56;100909.53;;;15.56;82.79
22333;BME280;11334;36.986;-121.936;2023-05-25T06:57:23;100912.47;;;15.61;82.81
22333;BME280;11334;36.986;-121.936;2023-05-25T06:59:49;100912.84;;;15.58;82.44
22333;BME280;11334;36.986;-121.936;2023-05-25T07:02:16;100904.94;;;15.50;82.41
22333;BME280;11334;36.986;-121.936;2023-05-25T07:04:43;100906.50;;;15.45;82.85
22333;BME280;11334;36.986;-121.936;2023-05-25T07:07:09;100904.13;;;15.50;82.87
22333;BME280;11334;36.986;-121.936;2023-05-25T07:09:37;100900.63;;;15.49;82.87
22333;BME280;11334;36.986;-121.936;2023-05-25T07:12:05;100897.09;;;15.49;83.33
22333;BME280;11334;36.986;-121.936;2023-05-25T07:14:33;100901.25;;;15.51;82.96
22333;BME280;11334;36.986;-121.936;2023-05-25T07:17:00;100909.91;;;15.53;83.00
22333;BME280;11334;36.986;-121.936;2023-05-25T07:19:26;100911.47;;;15.48;83.04
22333;BME280;11334;36.986;-121.936;2023-05-25T07:21:52;100900.97;;;15.47;83.27
22333;BME280;11334;36.986;-121.936;2023-05-25T07:24:18;100909.09;;;15.53;83.36
22333;BME280;11334;36.986;-121.936;2023-05-25T07:26:44;100910.56;;;15.55;84.31
22333;BME280;11334;36.986;-121.936;2023-05-25T07:29:11;100897.22;;;15.55;85.57
22333;BME280;11334;36.986;-121.936;2023-05-25T07:31:37;100906.53;;;15.59;86.01
22333;BME280;11334;36.986;-121.936;2023-05-25T07:34:03;100897.22;;;15.55;86.71
22333;BME280;11334;36.986;-121.936;2023-05-25T07:36:29;100895.56;;;15.54;87.31
22333;BME280;11334;36.986;-121.936;2023-05-25T07:38:56;100895.91;;;15.51;87.61
22333;BME280;11334;36.986;-121.936;2023-05-25T07:41:23;100907.78;;;15.49;87.87
22333;BME280;11334;36.986;-121.936;2023-05-25T07:43:49;100897.31;;;15.48;88.09
22333;BME280;11334;36.986;-121.936;2023-05-25T07:46:16;100901.34;;;15.44;88.01
22333;BME280;11334;36.986;-121.936;2023-05-25T07:48:45;100898.13;;;15.34;88.28
22333;BME280;11334;36.986;-121.936;2023-05-25T07:51:11;100899.78;;;15.35;88.50
22333;BME280;11334;36.986;-121.936;2023-05-25T07:53:38;100910.91;;;15.38;88.83
22333;BME280;11334;36.986;-121.936;2023-05-25T07:56:04;100905.31;;;15.33;88.95
22333;BME280;11334;36.986;-121.936;2023-05-25T07:58:31;100906.94;;;15.34;89.32
22333;BME280;11334;36.986;-121.936;2023-05-25T08:00:58;100895.94;;;15.37;89.46
22333;BME280;11334;36.986;-121.936;2023-05-25T08:03:24;100901.25;;;15.37;90.66
22333;BME280;11334;36.986;-121.936;2023-05-25T08:05:51;100891.56;;;15.36;91.47
22333;BME280;11334;36.986;-121.936;2023-05-25T08:08:17;100891.84;;;15.41;91.89
22333;BME280;11334;36.986;-121.936;2023-05-25T08:10:44;100888.00;;;15.44;90.47
22333;BME280;11334;36.986;-121.936;2023-05-25T08:13:10;100885.88;;;15.39;91.26
22333;BME280;11334;36.986;-121.936;2023-05-25T08:15:36;100891.56;;;15.36;91.68
22333;BME280;11334;36.986;-121.936;2023-05-25T08:18:05;100881.72;;;15.37;93.03
22333;BME280;11334;36.986;-121.936;2023-05-25T08:20:31;100878.88;;;15.38;92.65
22333;BME280;11334;36.986;-121.936;2023-05-25T08:22:58;100874.75;;;15.36;92.88
22333;BME280;11334;36.986;-121.936;2023-05-25T08:25:24;100874.28;;;15.32;93.19
22333;BME280;11334;36.986;-121.936;2023-05-25T08:27:50;100872.81;;;15.30;93.72
22333;BME280;11334;36.986;-121.936;2023-05-25T08:30:17;100860.84;;;15.26;95.22
22333;BME280;11334;36.986;-121.936;2023-05-25T08:32:43;100867.19;;;15.25;95.62
22333;BME280;11334;36.986;-121.936;2023-05-25T08:35:09;100876.84;;;15.26;96.24
22333;BME280;11334;36.986;-121.936;2023-05-25T08:37:39;100860.66;;;15.27;96.24
22333;BME280;11334;36.986;-121.936;2023-05-25T08:40:15;100855.31;;;15.27;96.38
22333;BME280;11334;36.986;-121.936;2023-05-25T08:42:45;100856.94;;;15.14;97.78
22333;BME280;11334;36.986;-121.936;2023-05-25T08:45:11;100846.72;;;15.03;98.58
22333;BME280;11334;36.986;-121.936;2023-05-25T08:47:41;100854.28;;;15.14;98.39
22333;BME280;11334;36.986;-121.936;2023-05-25T08:50:10;100847.47;;;15.12;98.35
22333;BME280;11334;36.986;-121.936;2023-05-25T08:52:39;100851.66;;;15.06;98.50
22333;BME280;11334;36.986;-121.936;2023-05-25T08:55:07;100839.34;;;15.05;97.91
22333;BME280;11334;36.986;-121.936;2023-05-25T08:57:58;100844.03;;;15.03;98.97
22333;BME280;11334;36.986;-121.936;2023-05-25T09:00:31;100837.34;;;15.07;98.50
22333;BME280;11334;36.986;-121.936;2023-05-25T09:03:04;100824.16;;;15.06;98.82
22333;BME280;11334;36.986;-121.936;2023-05-25T09:05:35;100822.16;;;15.08;98.67
22333;BME280;11334;36.986;-121.936;2023-05-25T09:08:04;100827.00;;;15.04;98.69
22333;BME280;11334;36.986;-121.936;2023-05-25T09:10:34;100826.66;;;15.07;98.98
22333;BME280;11334;36.986;-121.936;2023-05-25T09:13:01;100823.78;;;15.09;98.79
22333;BME280;11334;36.986;-121.936;2023-05-25T09:15:28;100825.53;;;15.02;100.00
22333;BME280;11334;36.986;-121.936;2023-05-25T09:17:55;100824.69;;;15.01;100.00
22333;BME280;11334;36.986;-121.936;2023-05-25T09:20:23;100822.53;;;15.05;100.00
22333;BME280;11334;36.986;-121.936;2023-05-25T09:22:49;100817.72;;;15.00;100.00
22333;BME280;11334;36.986;-121.936;2023-05-25T09:25:17;100821.66;;;15.04;100.00
22333;BME280;11334;36.986;-121.936;2023-05-25T09:27:47;100816.25;;;14.98;100.00
22333;BME280;11334;36.986;-121.936;2023-05-25T09:30:15;100819.91;;;14.97;100.00
22333;BME280;11334;36.986;-121.936;2023-05-25T09:32:41;100822.78;;;14.95;100.00
22333;BME280;11334;36.986;-121.936;2023-05-25T09:35:09;100813.75;;;14.96;100.00
22333;BME280;11334;36.986;-121.936;2023-05-25T09:37:35;100814.28;;;14.92;100.00
22333;BME280;11334;36.986;-121.936;2023-05-25T09:40:03;100813.47;;;14.91;100.00
22333;BME280;11334;36.986;-121.936;2023-05-25T09:42:32;100822.13;;;14.93;100.00
22333;BME280;11334;36.986;-121.936;2023-05-25T09:44:58;100811.63;;;14.92;100.00
22333;BME280;11334;36.986;-121.936;2023-05-25T09:47:28;100811.81;;;14.90;100.00
22333;BME280;11334;36.986;-121.936;2023-05-25T09:49:58;100807.69;;;14.88;100.00
22333;BME280;11334;36.986;-121.936;2023-05-25T09:52:25;100817.69;;;14.86;100.00
22333;BME280;11334;36.986;-121.936;2023-05-25T09:54:52;100810.53;;;14.86;100.00
22333;BME280;11334;36.986;-121.936;2023-05-25T09:57:19;100808.88;;;14.85;100.00
22333;BME280;11334;36.986;-121.936;2023-05-25T09:59:46;100818.59;;;14.79;100.00
22333;BME280;11334;36.986;-121.936;2023-05-25T10:02:15;100817.41;;;14.81;100.00
22333;BME280;11334;36.986;-121.936;2023-05-25T10:04:41;100807.13;;;14.78;100.00
22333;BME280;11334;36.986;-121.936;2023-05-25T10:07:07;100806.56;;;14.83;100.00
22333;BME280;11334;36.986;-121.936;2023-05-25T10:09:38;100806.47;;;14.76;100.00
22333;BME280;11334;36.986;-121.936;2023-05-25T10:12:06;100807.94;;;14.79;100.00
22333;BME280;11334;36.986;-121.936;2023-05-25T10:14:36;100801.88;;;14.84;100.00
22333;BME280;11334;36.986;-121.936;2023-05-25T10:17:04;100798.75;;;14.81;100.00
22333;BME280;11334;36.986;-121.936;2023-05-25T10:19:37;100799.94;;;14.79;100.00
22333;BME280;11334;36.986;-121.936;2023-05-25T10:22:21;100793.78;;;14.78;100.00
22333;BME280;11334;36.986;-121.936;2023-05-25T10:24:56;100796.25;;;14.80;100.00
22333;BME280;11334;36.986;-121.936;2023-05-25T10:27:28;100788.44;;;14.78;100.00
22333;BME280;11334;36.986;-121.936;2023-05-25T10:29:55;100786.47;;;14.72;100.00
22333;BME280;11334;36.986;-121.936;2023-05-25T10:32:23;100776.72;;;14.65;100.00
22333;BME280;11334;36.986;-121.936;2023-05-25T10:34:51;100785.38;;;14.67;100.00
22333;BME280;11334;36.986;-121.936;2023-05-25T10:37:18;100797.72;;;14.68;100.00
22333;BME280;11334;36.986;-121.936;2023-05-25T10:39:45;100787.31;;;14.58;100.00
22333;BME280;11334;36.986;-121.936;2023-05-25T10:42:12;100799.81;;;14.72;100.00
22333;BME280;11334;36.986;-121.936;2023-05-25T10:44:41;100790.25;;;14.63;100.00
22333;BME280;11334;36.986;-121.936;2023-05-25T10:47:08;100794.19;;;14.67;100.00
22333;BME280;11334;36.986;-121.936;2023-05-25T10:49:52;100787.88;;;14.68;100.00
22333;BME280;11334;36.986;-121.936;2023-05-25T10:52:18;100803.06;;;14.68;100.00
22333;BME280;11334;36.986;-121.936;2023-05-25T10:54:46;100791.47;;;14.75;100.00
22333;BME280;11334;36.986;-121.936;2023-05-25T10:57:21;100782.19;;;14.71;100.00
22333;BME280;11334;36.986;-121.936;2023-05-25T10:59:51;100786.16;;;14.75;99.45
22333;BME280;11334;36.986;-121.936;2023-05-25T11:02:20;100785.91;;;14.62;100.00
22333;BME280;11334;36.986;-121.936;2023-05-25T11:04:49;100783.81;;;14.58;100.00
22333;BME280;11334;36.986;-121.936;2023-05-25T11:07:16;100790.16;;;14.57;100.00
22333;BME280;11334;36.986;-121.936;2023-05-25T11:09:56;100785.19;;;14.54;100.00
22333;BME280;11334;36.986;-121.936;2023-05-25T11:12:25;100787.19;;;14.52;100.00
22333;BME280;11334;36.986;-121.936;2023-05-25T11:15:10;100789.69;;;14.53;100.00
22333;BME280;11334;36.986;-121.936;2023-05-25T11:17:44;100786.38;;;14.52;100.00
22333;BME280;11334;36.986;-121.936;2023-05-25T11:20:22;100784.88;;;14.49;100.00
22333;BME280;11334;36.986;-121.936;2023-05-25T11:22:50;100789.00;;;14.37;100.00
22333;BME280;11334;36.986;-121.936;2023-05-25T11:25:41;100786.63;;;14.42;100.00
22333;BME280;11334;36.986;-121.936;2023-05-25T11:28:08;100789.34;;;14.34;100.00
22333;BME280;11334;36.986;-121.936;2023-05-25T11:30:38;100786.69;;;14.34;100.00
22333;BME280;11334;36.986;-121.936;2023-05-25T11:33:06;100778.69;;;14.34;100.00
22333;BME280;11334;36.986;-121.936;2023-05-25T11:35:33;100784.75;;;14.28;100.00
22333;BME280;11334;36.986;-121.936;2023-05-25T11:38:05;100784.75;;;14.28;100.00
22333;BME280;11334;36.986;-121.936;2023-05-25T11:40:31;100781.97;;;14.22;100.00
22333;BME280;11334;36.986;-121.936;2023-05-25T11:42:58;100783.16;;;14.20;100.00
22333;BME280;11334;36.986;-121.936;2023-05-25T11:45:32;100786.34;;;14.15;100.00
22333;BME280;11334;36.986;-121.936;2023-05-25T11:47:58;100788.47;;;14.20;100.00
22333;BME280;11334;36.986;-121.936;2023-05-25T11:50:25;100786.84;;;14.19;100.00
22333;BME280;11334;36.986;-121.936;2023-05-25T11:52:52;100793.88;;;14.12;100.00
22333;BME280;11334;36.986;-121.936;2023-05-25T11:55:19;100787.81;;;14.18;100.00
22333;BME280;11334;36.986;-121.936;2023-05-25T11:57:46;100786.84;;;14.19;100.00
22333;BME280;11334;36.986;-121.936;2023-05-25T12:00:12;100782.97;;;14.21;100.00
22333;BME280;11334;36.986;-121.936;2023-05-25T12:02:48;100784.63;;;14.22;100.00
22333;BME280;11334;36.986;-121.936;2023-05-25T12:05:15;100781.97;;;14.22;100.00
22333;BME280;11334;36.986;-121.936;2023-05-25T12:07:44;100779.81;;;14.18;100.00
22333;BME280;11334;36.986;-121.936;2023-05-25T12:10:13;100781.22;;;14.14;100.00
22333;BME280;11334;36.986;-121.936;2023-05-25T12:12:47;100782.84;;;14.15;100.00
22333;BME280;11334;36.986;-121.936;2023-05-25T12:15:20;100769.53;;;14.15;100.00
22333;BME280;11334;36.986;-121.936;2023-05-25T12:17:47;100768.81;;;14.21;100.00
22333;BME280;11334;36.986;-121.936;2023-05-25T12:20:15;100765.25;;;14.28;100.00
22333;BME280;11334;36.986;-121.936;2023-05-25T12:22:42;100771.47;;;14.21;100.00
22333;BME280;11334;36.986;-121.936;2023-05-25T12:25:10;100775.97;;;14.20;100.00
22333;BME280;11334;36.986;-121.936;2023-05-25T12:27:37;100771.47;;;14.21;100.00